sensor_id;sensor_type;location;lat;lon;timestamp;P1;durP1;ratioP1;P2;durP2;ratioP2
17890;SDS011;9071;48.220;14.480;2024-03-22T00:02:48;26.47;;;17.30;;
17890;SDS011;9071;48.220;14.480;2024-03-22T00:07:51;23.13;;;16.87;;
17890;SDS011;9071;48.220;14.480;2024-03-22T00:12:53;29.43;;;18.90;;
17890;SDS011;9071;48.220;14.480;2024-03-22T00:17:55;25.27;;;17.07;;
17890;SDS011;9071;48.220;14.480;2024-03-22T00:22:58;25.03;;;17.60;;
17890;SDS011;9071;48.220;14.480;2024-03-22T00:28:01;27.13;;;18.37;;
17890;SDS011;9071;48.220;14.480;2024-03-22T00:33:03;25.63;;;17.80;;
17890;SDS011;9071;48.220;14.480;2024-03-22T00:38:06;27.13;;;18.27;;
17890;SDS011;9071;48.220;14.480;2024-03-22T00:43:08;29.03;;;18.60;;
17890;SDS011;9071;48.220;14.480;2024-03-22T00:48:10;28.97;;;19.03;;
17890;SDS011;9071;48.220;14.480;2024-03-22T00:53:14;29.13;;;19.10;;
17890;SDS011;9071;48.220;14.480;2024-03-22T00:58:17;26.50;;;19.10;;
17890;SDS011;9071;48.220;14.480;2024-03-22T01:03:20;33.33;;;20.30;;
17890;SDS011;9071;48.220;14.480;2024-03-22T01:08:23;31.27;;;19.40;;
17890;SDS011;9071;48.220;14.480;2024-03-22T01:13:25;27.97;;;18.83;;
17890;SDS011;9071;48.220;14.480;2024-03-22T01:18:27;31.17;;;19.90;;
17890;SDS011;9071;48.220;14.480;2024-03-22T01:23:31;29.93;;;19.90;;
17890;SDS011;9071;48.220;14.480;2024-03-22T01:28:33;32.20;;;19.80;;
17890;SDS011;9071;48.220;14.480;2024-03-22T01:33:35;33.50;;;20.27;;
17890;SDS011;9071;48.220;14.480;2024-03-22T01:38:38;31.03;;;19.57;;
17890;SDS011;9071;48.220;14.480;2024-03-22T01:43:40;33.83;;;22.13;;
17890;SDS011;9071;48.220;14.480;2024-03-22T01:48:42;34.33;;;21.63;;
17890;SDS011;9071;48.220;14.480;2024-03-22T01:53:46;37.07;;;22.77;;
17890;SDS011;9071;48.220;14.480;2024-03-22T01:58:48;39.43;;;23.63;;
17890;SDS011;9071;48.220;14.480;2024-03-22T02:03:50;39.00;;;24.03;;
17890;SDS011;9071;48.220;14.480;2024-03-22T02:08:54;39.57;;;23.73;;
17890;SDS011;9071;48.220;14.480;2024-03-22T02:13:56;40.60;;;24.50;;
17890;SDS011;9071;48.220;14.480;2024-03-22T02:18:59;42.00;;;24.70;;
17890;SDS011;9071;48.220;14.480;2024-03-22T02:24:02;41.97;;;24.13;;
17890;SDS011;9071;48.220;14.480;2024-03-22T02:29:04;42.03;;;25.10;;
17890;SDS011;9071;48.220;14.480;2024-03-22T02:34:06;48.00;;;25.80;;
17890;SDS011;9071;48.220;14.480;2024-03-22T02:39:10;45.33;;;25.47;;
17890;SDS011;9071;48.220;14.480;2024-03-22T02:44:12;45.73;;;26.90;;
17890;SDS011;9071;48.220;14.480;2024-03-22T02:49:14;47.43;;;26.63;;
17890;SDS011;9071;48.220;14.480;2024-03-22T02:54:17;42.17;;;24.60;;
17890;SDS011;9071;48.220;14.480;2024-03-22T02:59:19;46.37;;;25.20;;
17890;SDS011;9071;48.220;14.480;2024-03-22T03:04:21;43.07;;;24.10;;
17890;SDS011;9071;48.220;14.480;2024-03-22T03:09:25;44.57;;;25.27;;
17890;SDS011;9071;48.220;14.480;2024-03-22T03:14:27;42.47;;;25.50;;
17890;SDS011;9071;48.220;14.480;2024-03-22T03:19:29;42.87;;;25.13;;
17890;SDS011;9071;48.220;14.480;2024-03-22T03:24:32;44.90;;;25.63;;
17890;SDS011;9071;48.220;14.480;2024-03-22T03:29:34;49.00;;;27.47;;
17890;SDS011;9071;48.220;14.480;2024-03-22T03:34:36;52.47;;;28.00;;
17890;SDS011;9071;48.220;14.480;2024-03-22T03:39:40;51.63;;;26.20;;
17890;SDS011;9071;48.220;14.480;2024-03-22T03:44:42;48.67;;;26.43;;
17890;SDS011;9071;48.220;14.480;2024-03-22T03:49:44;45.93;;;26.17;;
17890;SDS011;9071;48.220;14.480;2024-03-22T03:54:48;49.10;;;26.87;;
17890;SDS011;9071;48.220;14.480;2024-03-22T03:59:50;44.63;;;24.83;;
17890;SDS011;9071;48.220;14.480;2024-03-22T04:04:52;51.63;;;27.77;;
17890;SDS011;9071;48.220;14.480;2024-03-22T04:09:56;51.17;;;28.37;;
17890;SDS011;9071;48.220;14.480;2024-03-22T04:15:00;51.97;;;28.40;;
17890;SDS011;9071;48.220;14.480;2024-03-22T04:20:02;57.93;;;31.27;;
17890;SDS011;9071;48.220;14.480;2024-03-22T04:25:06;55.67;;;30.73;;
17890;SDS011;9071;48.220;14.480;2024-03-22T04:30:09;58.73;;;31.93;;
17890;SDS011;9071;48.220;14.480;2024-03-22T04:35:12;58.00;;;30.13;;
17890;SDS011;9071;48.220;14.480;2024-03-22T04:40:16;55.33;;;28.90;;
17890;SDS011;9071;48.220;14.480;2024-03-22T04:45:18;58.67;;;31.13;;
17890;SDS011;9071;48.220;14.480;2024-03-22T04:50:20;61.23;;;31.93;;
17890;SDS011;9071;48.220;14.480;2024-03-22T04:55:23;64.17;;;31.00;;
17890;SDS011;9071;48.220;14.480;2024-03-22T05:00:26;63.03;;;33.07;;
17890;SDS011;9071;48.220;14.480;2024-03-22T05:05:28;53.90;;;29.93;;
17890;SDS011;9071;48.220;14.480;2024-03-22T05:10:31;49.57;;;27.80;;
17890;SDS011;9071;48.220;14.480;2024-03-22T05:15:33;52.60;;;28.40;;
17890;SDS011;9071;48.220;14.480;2024-03-22T05:20:36;56.80;;;28.17;;
17890;SDS011;9071;48.220;14.480;2024-03-22T05:25:39;50.73;;;28.90;;
17890;SDS011;9071;48.220;14.480;2024-03-22T05:30:41;56.33;;;29.80;;
17890;SDS011;9071;48.220;14.480;2024-03-22T05:35:43;56.67;;;30.13;;
17890;SDS011;9071;48.220;14.480;2024-03-22T05:40:46;64.63;;;34.20;;
17890;SDS011;9071;48.220;14.480;2024-03-22T05:45:48;62.53;;;31.90;;
17890;SDS011;9071;48.220;14.480;2024-03-22T05:50:50;64.73;;;34.63;;
17890;SDS011;9071;48.220;14.480;2024-03-22T05:55:54;57.33;;;32.37;;
17890;SDS011;9071;48.220;14.480;2024-03-22T06:00:56;47.87;;;29.63;;
17890;SDS011;9071;48.220;14.480;2024-03-22T06:05:58;40.53;;;26.23;;
17890;SDS011;9071;48.220;14.480;2024-03-22T06:11:02;47.50;;;28.30;;
17890;SDS011;9071;48.220;14.480;2024-03-22T06:16:05;44.90;;;27.53;;
17890;SDS011;9071;48.220;14.480;2024-03-22T06:21:07;49.40;;;29.37;;
17890;SDS011;9071;48.220;14.480;2024-03-22T06:26:10;41.90;;;26.70;;
17890;SDS011;9071;48.220;14.480;2024-03-22T06:31:12;42.00;;;25.87;;
17890;SDS011;9071;48.220;14.480;2024-03-22T06:36:14;42.33;;;25.20;;
17890;SDS011;9071;48.220;14.480;2024-03-22T06:41:18;41.33;;;26.63;;
17890;SDS011;9071;48.220;14.480;2024-03-22T06:46:20;42.20;;;25.77;;
17890;SDS011;9071;48.220;14.480;2024-03-22T06:51:23;40.77;;;24.57;;
17890;SDS011;9071;48.220;14.480;2024-03-22T06:56:26;38.77;;;25.00;;
17890;SDS011;9071;48.220;14.480;2024-03-22T07:01:28;42.63;;;25.43;;
17890;SDS011;9071;48.220;14.480;2024-03-22T07:06:30;44.83;;;26.43;;
17890;SDS011;9071;48.220;14.480;2024-03-22T07:11:34;38.93;;;24.60;;
17890;SDS011;9071;48.220;14.480;2024-03-22T07:16:36;39.63;;;25.03;;
17890;SDS011;9071;48.220;14.480;2024-03-22T07:21:38;36.07;;;23.43;;
17890;SDS011;9071;48.220;14.480;2024-03-22T07:26:41;35.47;;;23.83;;
17890;SDS011;9071;48.220;14.480;2024-03-22T07:31:43;39.67;;;24.23;;
17890;SDS011;9071;48.220;14.480;2024-03-22T07:36:45;38.90;;;23.70;;
17890;SDS011;9071;48.220;14.480;2024-03-22T07:41:49;37.47;;;23.67;;
17890;SDS011;9071;48.220;14.480;2024-03-22T07:46:51;39.60;;;25.10;;
17890;SDS011;9071;48.220;14.480;2024-03-22T07:51:54;41.20;;;24.90;;
17890;SDS011;9071;48.220;14.480;2024-03-22T07:56:57;38.30;;;24.13;;
17890;SDS011;9071;48.220;14.480;2024-03-22T08:01:59;37.20;;;23.53;;
17890;SDS011;9071;48.220;14.480;2024-03-22T08:07:03;36.23;;;23.37;;
17890;SDS011;9071;48.220;14.480;2024-03-22T08:12:07;32.83;;;22.93;;
17890;SDS011;9071;48.220;14.480;2024-03-22T08:17:09;36.67;;;22.20;;
17890;SDS011;9071;48.220;14.480;2024-03-22T08:22:11;37.93;;;22.23;;
17890;SDS011;9071;48.220;14.480;2024-03-22T08:27:15;32.03;;;21.17;;
17890;SDS011;9071;48.220;14.480;2024-03-22T08:32:17;33.13;;;22.47;;
17890;SDS011;9071;48.220;14.480;2024-03-22T08:37:19;39.25;;;22.73;;
17890;SDS011;9071;48.220;14.480;2024-03-22T08:42:23;33.10;;;19.58;;
17890;SDS011;9071;48.220;14.480;2024-03-22T08:47:26;30.58;;;19.92;;
17890;SDS011;9071;48.220;14.480;2024-03-22T08:52:28;25.80;;;18.55;;
17890;SDS011;9071;48.220;14.480;2024-03-22T08:57:32;28.08;;;18.38;;
17890;SDS011;9071;48.220;14.480;2024-03-22T09:02:34;23.77;;;17.30;;
17890;SDS011;9071;48.220;14.480;2024-03-22T09:07:37;24.75;;;17.30;;
17890;SDS011;9071;48.220;14.480;2024-03-22T09:12:40;26.08;;;18.10;;
17890;SDS011;9071;48.220;14.480;2024-03-22T09:17:42;25.02;;;16.40;;
17890;SDS011;9071;48.220;14.480;2024-03-22T09:22:44;22.92;;;15.95;;
17890;SDS011;9071;48.220;14.480;2024-03-22T09:27:48;23.30;;;15.13;;
17890;SDS011;9071;48.220;14.480;2024-03-22T09:32:50;20.75;;;14.27;;
17890;SDS011;9071;48.220;14.480;2024-03-22T09:37:52;23.33;;;15.48;;
17890;SDS011;9071;48.220;14.480;2024-03-22T09:42:56;20.63;;;14.65;;
17890;SDS011;9071;48.220;14.480;2024-03-22T09:48:02;19.27;;;12.52;;
17890;SDS011;9071;48.220;14.480;2024-03-22T09:53:05;19.42;;;13.30;;
17890;SDS011;9071;48.220;14.480;2024-03-22T09:58:10;17.80;;;12.40;;
17890;SDS011;9071;48.220;14.480;2024-03-22T10:03:14;18.45;;;11.40;;
17890;SDS011;9071;48.220;14.480;2024-03-22T10:08:17;16.67;;;11.00;;
17890;SDS011;9071;48.220;14.480;2024-03-22T10:13:20;14.43;;;9.48;;
17890;SDS011;9071;48.220;14.480;2024-03-22T10:18:22;17.33;;;10.20;;
17890;SDS011;9071;48.220;14.480;2024-03-22T10:23:25;13.90;;;9.77;;
17890;SDS011;9071;48.220;14.480;2024-03-22T10:28:28;14.75;;;9.32;;
17890;SDS011;9071;48.220;14.480;2024-03-22T10:33:30;15.95;;;9.18;;
17890;SDS011;9071;48.220;14.480;2024-03-22T10:38:32;13.32;;;9.85;;
17890;SDS011;9071;48.220;14.480;2024-03-22T10:43:38;13.43;;;8.93;;
17890;SDS011;9071;48.220;14.480;2024-03-22T10:48:40;12.02;;;8.70;;
17890;SDS011;9071;48.220;14.480;2024-03-22T10:53:45;13.20;;;9.18;;
17890;SDS011;9071;48.220;14.480;2024-03-22T10:58:49;11.32;;;7.43;;
17890;SDS011;9071;48.220;14.480;2024-03-22T11:04:02;10.27;;;6.60;;
17890;SDS011;9071;48.220;14.480;2024-03-22T11:09:05;10.40;;;6.50;;
17890;SDS011;9071;48.220;14.480;2024-03-22T11:14:12;10.50;;;7.07;;
17890;SDS011;9071;48.220;14.480;2024-03-22T11:19:14;9.23;;;6.45;;
17890;SDS011;9071;48.220;14.480;2024-03-22T11:24:16;10.82;;;6.03;;
17890;SDS011;9071;48.220;14.480;2024-03-22T11:29:19;14.35;;;6.93;;
17890;SDS011;9071;48.220;14.480;2024-03-22T11:34:21;8.30;;;5.32;;
17890;SDS011;9071;48.220;14.480;2024-03-22T11:39:23;9.50;;;6.28;;
17890;SDS011;9071;48.220;14.480;2024-03-22T11:44:27;9.32;;;6.65;;
17890;SDS011;9071;48.220;14.480;2024-03-22T11:49:29;10.07;;;7.40;;
17890;SDS011;9071;48.220;14.480;2024-03-22T11:54:32;9.80;;;6.72;;
17890;SDS011;9071;48.220;14.480;2024-03-22T11:59:35;6.38;;;4.63;;
17890;SDS011;9071;48.220;14.480;2024-03-22T12:04:40;11.38;;;6.57;;
17890;SDS011;9071;48.220;14.480;2024-03-22T12:09:43;10.85;;;5.65;;
17890;SDS011;9071;48.220;14.480;2024-03-22T12:14:47;9.88;;;6.30;;
17890;SDS011;9071;48.220;14.480;2024-03-22T12:19:51;8.63;;;5.95;;
17890;SDS011;9071;48.220;14.480;2024-03-22T12:24:53;12.27;;;6.88;;
17890;SDS011;9071;48.220;14.480;2024-03-22T12:29:56;12.57;;;6.18;;
17890;SDS011;9071;48.220;14.480;2024-03-22T12:34:58;9.20;;;7.13;;
17890;SDS011;9071;48.220;14.480;2024-03-22T12:40:01;11.73;;;7.35;;
17890;SDS011;9071;48.220;14.480;2024-03-22T12:45:05;12.50;;;6.70;;
17890;SDS011;9071;48.220;14.480;2024-03-22T12:50:08;11.35;;;7.25;;
17890;SDS011;9071;48.220;14.480;2024-03-22T12:55:13;9.90;;;6.60;;
17890;SDS011;9071;48.220;14.480;2024-03-22T13:00:17;10.77;;;6.55;;
17890;SDS011;9071;48.220;14.480;2024-03-22T13:05:19;13.07;;;6.55;;
17890;SDS011;9071;48.220;14.480;2024-03-22T13:10:21;10.02;;;6.63;;
17890;SDS011;9071;48.220;14.480;2024-03-22T13:15:25;17.58;;;6.80;;
17890;SDS011;9071;48.220;14.480;2024-03-22T13:20:27;11.07;;;6.72;;
17890;SDS011;9071;48.220;14.480;2024-03-22T13:25:29;11.07;;;6.53;;
17890;SDS011;9071;48.220;14.480;2024-03-22T13:30:33;9.93;;;5.90;;
17890;SDS011;9071;48.220;14.480;2024-03-22T13:35:37;8.57;;;6.80;;
17890;SDS011;9071;48.220;14.480;2024-03-22T13:40:41;9.25;;;6.22;;
17890;SDS011;9071;48.220;14.480;2024-03-22T13:45:46;17.63;;;6.75;;
17890;SDS011;9071;48.220;14.480;2024-03-22T13:50:54;11.93;;;7.22;;
17890;SDS011;9071;48.220;14.480;2024-03-22T13:55:56;12.15;;;6.72;;
17890;SDS011;9071;48.220;14.480;2024-03-22T14:01:00;14.93;;;6.55;;
17890;SDS011;9071;48.220;14.480;2024-03-22T14:06:03;16.00;;;7.18;;
17890;SDS011;9071;48.220;14.480;2024-03-22T14:11:05;13.07;;;6.88;;
17890;SDS011;9071;48.220;14.480;2024-03-22T14:16:09;9.85;;;6.72;;
17890;SDS011;9071;48.220;14.480;2024-03-22T14:21:11;10.45;;;6.43;;
17890;SDS011;9071;48.220;14.480;2024-03-22T14:26:17;18.25;;;6.88;;
17890;SDS011;9071;48.220;14.480;2024-03-22T14:31:21;10.60;;;6.50;;
17890;SDS011;9071;48.220;14.480;2024-03-22T14:36:23;10.48;;;6.47;;
17890;SDS011;9071;48.220;14.480;2024-03-22T14:41:25;12.75;;;6.53;;
17890;SDS011;9071;48.220;14.480;2024-03-22T14:46:28;10.90;;;6.60;;
17890;SDS011;9071;48.220;14.480;2024-03-22T14:51:30;9.52;;;6.57;;
17890;SDS011;9071;48.220;14.480;2024-03-22T14:56:32;14.13;;;7.55;;
17890;SDS011;9071;48.220;14.480;2024-03-22T15:01:36;16.63;;;7.18;;
17890;SDS011;9071;48.220;14.480;2024-03-22T15:06:39;11.38;;;6.40;;
17890;SDS011;9071;48.220;14.480;2024-03-22T15:11:41;11.30;;;6.93;;
17890;SDS011;9071;48.220;14.480;2024-03-22T15:16:44;10.30;;;6.50;;
17890;SDS011;9071;48.220;14.480;2024-03-22T15:21:46;11.35;;;6.90;;
17890;SDS011;9071;48.220;14.480;2024-03-22T15:26:49;14.45;;;7.40;;
17890;SDS011;9071;48.220;14.480;2024-03-22T15:31:52;12.75;;;7.75;;
17890;SDS011;9071;48.220;14.480;2024-03-22T15:36:54;12.57;;;6.93;;
17890;SDS011;9071;48.220;14.480;2024-03-22T15:41:56;9.95;;;6.93;;
17890;SDS011;9071;48.220;14.480;2024-03-22T15:47:00;11.75;;;7.32;;
17890;SDS011;9071;48.220;14.480;2024-03-22T15:52:02;9.77;;;7.05;;
17890;SDS011;9071;48.220;14.480;2024-03-22T15:57:04;16.10;;;7.00;;
17890;SDS011;9071;48.220;14.480;2024-03-22T16:02:08;14.65;;;8.23;;
17890;SDS011;9071;48.220;14.480;2024-03-22T16:07:10;9.60;;;6.82;;
17890;SDS011;9071;48.220;14.480;2024-03-22T16:12:12;12.30;;;7.97;;
17890;SDS011;9071;48.220;14.480;2024-03-22T16:17:15;8.82;;;6.40;;
17890;SDS011;9071;48.220;14.480;2024-03-22T16:22:18;9.90;;;6.95;;
17890;SDS011;9071;48.220;14.480;2024-03-22T16:27:20;13.05;;;6.88;;
17890;SDS011;9071;48.220;14.480;2024-03-22T16:32:25;13.73;;;7.40;;
17890;SDS011;9071;48.220;14.480;2024-03-22T16:37:27;10.48;;;6.97;;
17890;SDS011;9071;48.220;14.480;2024-03-22T16:42:29;14.32;;;7.60;;
17890;SDS011;9071;48.220;14.480;2024-03-22T16:47:32;12.60;;;7.95;;
17890;SDS011;9071;48.220;14.480;2024-03-22T16:52:34;13.88;;;6.90;;
17890;SDS011;9071;48.220;14.480;2024-03-22T16:57:36;11.63;;;7.00;;
17890;SDS011;9071;48.220;14.480;2024-03-22T17:02:40;8.05;;;5.82;;
17890;SDS011;9071;48.220;14.480;2024-03-22T17:07:42;10.90;;;7.10;;
17890;SDS011;9071;48.220;14.480;2024-03-22T17:12:46;9.43;;;5.78;;
17890;SDS011;9071;48.220;14.480;2024-03-22T17:17:50;17.38;;;10.40;;
17890;SDS011;9071;48.220;14.480;2024-03-22T17:22:52;10.77;;;7.63;;
17890;SDS011;9071;48.220;14.480;2024-03-22T17:27:54;11.25;;;8.27;;
17890;SDS011;9071;48.220;14.480;2024-03-22T17:32:58;20.50;;;15.20;;
17890;SDS011;9071;48.220;14.480;2024-03-22T17:38:00;12.05;;;8.63;;
17890;SDS011;9071;48.220;14.480;2024-03-22T17:43:02;9.73;;;8.07;;
17890;SDS011;9071;48.220;14.480;2024-03-22T17:48:06;10.07;;;8.10;;
17890;SDS011;9071;48.220;14.480;2024-03-22T17:53:08;13.07;;;8.52;;
17890;SDS011;9071;48.220;14.480;2024-03-22T17:58:10;11.55;;;7.63;;
17890;SDS011;9071;48.220;14.480;2024-03-22T18:03:14;11.77;;;7.07;;
17890;SDS011;9071;48.220;14.480;2024-03-22T18:08:16;14.83;;;8.83;;
17890;SDS011;9071;48.220;14.480;2024-03-22T18:13:19;11.80;;;9.27;;
17890;SDS011;9071;48.220;14.480;2024-03-22T18:18:23;13.90;;;10.47;;
17890;SDS011;9071;48.220;14.480;2024-03-22T18:23:26;13.57;;;9.60;;
17890;SDS011;9071;48.220;14.480;2024-03-22T18:28:29;15.20;;;9.40;;
17890;SDS011;9071;48.220;14.480;2024-03-22T18:33:32;14.67;;;10.43;;
17890;SDS011;9071;48.220;14.480;2024-03-22T18:38:36;12.70;;;9.27;;
17890;SDS011;9071;48.220;14.480;2024-03-22T18:43:38;14.00;;;10.13;;
17890;SDS011;9071;48.220;14.480;2024-03-22T18:48:41;20.10;;;12.53;;
17890;SDS011;9071;48.220;14.480;2024-03-22T18:53:44;18.77;;;13.57;;
17890;SDS011;9071;48.220;14.480;2024-03-22T18:58:46;29.83;;;20.33;;
17890;SDS011;9071;48.220;14.480;2024-03-22T19:03:50;31.70;;;19.60;;
17890;SDS011;9071;48.220;14.480;2024-03-22T19:08:52;29.00;;;18.27;;
17890;SDS011;9071;48.220;14.480;2024-03-22T19:13:54;33.70;;;18.90;;
17890;SDS011;9071;48.220;14.480;2024-03-22T19:18:57;24.67;;;16.67;;
17890;SDS011;9071;48.220;14.480;2024-03-22T19:23:59;20.50;;;14.70;;
17890;SDS011;9071;48.220;14.480;2024-03-22T19:29:01;24.30;;;13.63;;
17890;SDS011;9071;48.220;14.480;2024-03-22T19:34:05;21.00;;;14.67;;
17890;SDS011;9071;48.220;14.480;2024-03-22T19:39:07;21.10;;;14.57;;
17890;SDS011;9071;48.220;14.480;2024-03-22T19:44:09;26.50;;;16.57;;
17890;SDS011;9071;48.220;14.480;2024-03-22T19:49:12;21.13;;;15.20;;
17890;SDS011;9071;48.220;14.480;2024-03-22T19:54:14;27.07;;;17.53;;
17890;SDS011;9071;48.220;14.480;2024-03-22T19:59:16;25.70;;;17.17;;
17890;SDS011;9071;48.220;14.480;2024-03-22T20:04:21;25.23;;;18.47;;
17890;SDS011;9071;48.220;14.480;2024-03-22T20:09:24;24.17;;;17.53;;
17890;SDS011;9071;48.220;14.480;2024-03-22T20:14:26;25.27;;;18.03;;
17890;SDS011;9071;48.220;14.480;2024-03-22T20:19:29;30.07;;;19.90;;
17890;SDS011;9071;48.220;14.480;2024-03-22T20:24:31;28.73;;;19.13;;
17890;SDS011;9071;48.220;14.480;2024-03-22T20:29:33;27.07;;;18.07;;
17890;SDS011;9071;48.220;14.480;2024-03-22T20:34:37;24.90;;;18.43;;
